EYPA/PLQ METAR and TAF weather

Enter ICAO airport designator
Station Type Date Time Source
EYPA METAR 2021/09/23 10:20 UTC NOAA

EYPA 231020Z AUTO 22008KT 180V250 9999 ////// 15/13 Q1004


Station Type Date Time Source
EYPA Decoded METAR 2021/09/23 10:20 UTC NOAA

Palanga Intl., Lithuania (EYPA) 55-55-12N 021-03E
Sep 23, 2021 - 06:20 AM EDT / 2021.09.23 1020 UTC
Wind: from the SW (220 degrees) at 9 MPH (8 KT) (direction variable):0
Visibility: greater than 7 mile(s):0
Temperature: 59 F (15 C)
Dew Point: 55 F (13 C)
Relative Humidity: 87%
Pressure (altimeter): 29.65 in. Hg (1004 hPa)
ob: EYPA 231020Z AUTO 22008KT 180V250 9999 ////// 15/13 Q1004
cycle: 10

Station Type Date Time Source
EYPA TAF 2021/09/05 18:09 UTC NOAA

TAF TAF EYPA 052101Z 0518/0618 CNL

Example: see airport list